To NAV CANADA Home Page Login to a new session Search on AWWS site Feedback and Comments Disclaimer Vers la page française équivalente Tips FAQ What's new on the site To the Forecasts and Observations / NOTAM section To "File a Flight Plan" website Publications and other links Update of the User's profile FIC Telephone Numbers My Weather Data Folder Route Weather Data Regional Weather Data Local Weather Data To the Forecasts and Observations / NOTAM section
Request Generated 07/29/2016 at 00:10:14 UTC . Weather information available at that time is displayed.

METAR/TAF

OTTAWA/GATINEAU/QC    

METAR CYND 290000Z 36003KT 15SM FEW060 FEW085 SCT260 24/17 A2989 RMK
CU1AC2CI2 CU TR SLP122 DENSITY ALT 1300FT=
METAR CYND 282300Z 35003KT 300V360 15SM FEW060 SCT090 SCT140 BKN260
26/16 A2988 RMK CU1AC2AC1CI1 SLP120 DENSITY ALT 1600FT=
METAR CYND 282200Z 34006KT 15SM FEW060 SCT130 BKN260 27/15 A2988 RMK
CU2AC2CI1 SLP118 DENSITY ALT 1600FT=

TAF CYND 281738Z 2818/2901 30008KT P6SM BKN080 TEMPO 2818/2824 P6SM
-SHRA PROB30 2820/2824 VRB15G25KT 2SM TSRA BR OVC040CB
RMK NXT FCST WILL BE ISSUED AT 291245Z=
Your time UTC time
Weather data provided by Environment Canada and NAV CANADA